Time;durP1;ratioP1;P1;durP2;ratioP2;P2;SDS_P1;SDS_P2;PMS_P1;PMS_P2;Temp;Humidity;BMP_temperature;BMP_pressure;BME280_temperature;BME280_humidity;BME280_pressure;Samples;Min_cycle;Max_cycle;Signal;HPM_P1;HPM_P2
2022/01/12 00:08:04;;;;;;;14.73;7.35;;;-0.30;99.90;;;;;;20594347;28;20070;-75
2022/01/12 00:18:04;;;;;;;11.52;6.75;;;-0.20;99.90;;;;;;20594073;28;20027;-75
2022/01/12 00:38:29;;;;;;;13.85;7.45;;;-0.60;99.90;;;;;;20591198;28;20038;-75
2022/01/12 00:48:36;;;;;;;14.35;6.88;;;-0.70;99.90;;;;;;20590510;28;20073;-75
2022/01/12 00:58:37;;;;;;;14.55;6.88;;;-0.70;99.90;;;;;;20590797;28;20041;-75
2022/01/12 01:08:39;;;;;;;15.60;7.35;;;-0.70;99.90;;;;;;20588574;28;20546;-75
2022/01/12 01:29:01;;;;;;;;;;;-0.20;99.90;;;;;;20588713;28;20038;-74
2022/01/12 01:39:04;;;;;;;13.87;7.57;;;-0.10;99.90;;;;;;20570448;28;19914;-75
2022/01/12 01:59:26;;;;;;;14.48;7.00;;;0.10;99.90;;;;;;20584896;28;20121;-75
2022/01/12 02:09:27;;;;;;;13.93;7.05;;;0.10;99.90;;;;;;20584113;28;20038;-75
2022/01/12 02:20:15;;;;;;;12.17;6.53;;;0.10;99.90;;;;;;20583171;28;20046;-75
2022/01/12 02:40:45;;;;;;;14.52;7.88;;;0.10;99.90;;;;;;20586113;28;20031;-75
2022/01/12 02:50:55;;;;;;;13.20;6.80;;;0.10;99.90;;;;;;20565509;28;20057;-75
2022/01/12 03:01:15;;;;;;;17.17;7.50;;;0.20;99.90;;;;;;20581099;28;20489;-76
2022/01/12 03:11:19;;;;;;;20.27;6.33;;;0.30;99.90;;;;;;20564345;28;20393;-75
2022/01/12 03:21:27;;;;;;;15.23;7.47;;;0.20;99.90;;;;;;20564096;28;20035;-75
2022/01/12 03:31:31;;;;;;;14.82;7.30;;;0.20;99.90;;;;;;20577182;28;20033;-76
2022/01/12 03:41:35;;;;;;;12.63;6.50;;;0.20;99.90;;;;;;20595254;28;20026;-74
2022/01/12 03:51:37;;;;;;;12.13;6.25;;;0.00;99.90;;;;;;20578275;28;20031;-75
2022/01/12 04:01:38;;;;;;;18.17;7.45;;;-0.10;99.90;;;;;;20576292;28;20042;-75
2022/01/12 04:11:40;;;;;;;14.00;7.03;;;-0.10;99.90;;;;;;20572611;28;20092;-76
2022/01/12 04:21:46;;;;;;;14.35;7.15;;;-0.20;99.90;;;;;;20573373;28;20031;-75
2022/01/12 04:31:47;;;;;;;17.50;8.45;;;-0.30;99.90;;;;;;20590983;28;20031;-75
2022/01/12 04:41:48;;;;;;;16.25;8.25;;;-0.40;99.90;;;;;;20590803;28;20501;-75
2022/01/12 04:51:51;;;;;;;15.68;7.55;;;-0.40;99.90;;;;;;20589981;28;20035;-75
2022/01/12 05:01:57;;;;;;;14.70;7.95;;;-0.50;99.90;;;;;;20594550;28;20394;-75
2022/01/12 05:22:20;;;;;;;12.98;7.97;;;-0.50;99.90;;;;;;20587541;28;20605;-75
2022/01/12 05:32:23;;;;;;;20.58;7.57;;;-0.50;99.90;;;;;;20570805;28;20035;-76
2022/01/12 05:42:24;;;;;;;18.17;8.77;;;-0.60;99.90;;;;;;20585737;28;20034;-75
2022/01/12 05:52:25;;;;;;;13.20;7.07;;;-0.60;99.90;;;;;;20584685;28;20062;-75
2022/01/12 06:02:27;;;;;;;15.38;7.72;;;-0.60;99.90;;;;;;20584305;28;20031;-77
2022/01/12 06:12:28;;;;;;;13.55;7.82;;;-0.70;99.90;;;;;;20564375;28;20414;-76
2022/01/12 06:22:29;;;;;;;15.80;8.43;;;-0.80;99.90;;;;;;20564332;28;20030;-74
2022/01/12 06:32:31;;;;;;;19.33;9.13;;;-0.70;99.90;;;;;;20581423;28;20062;-75
2022/01/12 06:42:33;;;;;;;14.63;7.43;;;-0.60;99.90;;;;;;20565034;28;20055;-75
2022/01/12 06:52:34;;;;;;;16.77;7.90;;;-0.80;99.90;;;;;;20564106;28;20085;-74
2022/01/12 07:02:35;;;;;;;16.83;8.32;;;-0.90;99.90;;;;;;20563155;28;20034;-75
2022/01/12 07:12:37;;;;;;;17.13;8.63;;;-1.00;99.90;;;;;;20563364;28;20536;-74
2022/01/12 07:22:40;;;;;;;15.25;8.70;;;-1.00;99.90;;;;;;20578965;28;20038;-75
2022/01/12 07:32:41;;;;;;;15.93;8.82;;;-0.90;99.90;;;;;;20580667;28;20035;-75
2022/01/12 07:42:44;;;;;;;20.35;8.93;;;-1.00;99.90;;;;;;20580096;28;20041;-75
2022/01/12 07:52:53;;;;;;;18.63;9.00;;;-1.10;99.90;;;;;;20547294;28;20375;-75
2022/01/12 08:02:54;;;;;;;16.55;8.02;;;-1.00;99.90;;;;;;20578351;28;20039;-75
2022/01/12 08:12:55;;;;;;;14.70;8.52;;;-1.00;99.90;;;;;;20584521;28;20046;-75
2022/01/12 08:22:56;;;;;;;17.10;9.35;;;-0.90;99.90;;;;;;20591973;28;20410;-75
2022/01/12 08:32:57;;;;;;;19.42;8.25;;;-0.90;99.90;;;;;;20592713;28;20046;-75
2022/01/12 08:42:58;;;;;;;16.98;8.38;;;-0.80;99.90;;;;;;20592026;28;20402;-75
2022/01/12 08:52:59;;;;;;;20.67;8.95;;;-0.90;99.90;;;;;;20591223;28;20038;-75
2022/01/12 09:03:01;;;;;;;17.38;9.40;;;-0.70;99.90;;;;;;20590431;28;20050;-75
2022/01/12 09:13:02;;;;;;;19.35;8.45;;;-0.40;99.90;;;;;;20589656;28;20042;-74
2022/01/12 09:23:04;;;;;;;16.25;8.95;;;-0.30;99.90;;;;;;20570436;28;20031;-75
2022/01/12 09:33:06;;;;;;;23.50;10.07;;;-0.20;99.90;;;;;;20586488;28;20042;-75
2022/01/12 09:43:07;;;;;;;15.05;8.48;;;0.10;99.90;;;;;;20586748;28;20057;-75
2022/01/12 09:53:08;;;;;;;17.88;9.52;;;0.10;99.90;;;;;;20585856;28;20031;-75
2022/01/12 10:03:11;;;;;;;18.70;9.13;;;0.20;99.90;;;;;;20585213;28;20034;-73
2022/01/12 10:13:25;;;;;;;19.52;9.95;;;0.80;99.90;;;;;;20585335;28;20031;-75
2022/01/12 10:23:26;;;;;;;18.63;10.00;;;2.40;99.90;;;;;;20584574;28;20170;-76
2022/01/12 10:33:33;;;;;;;18.38;10.52;;;3.60;99.90;;;;;;20581355;28;20062;-75
2022/01/12 10:43:44;;;;;;;18.40;10.57;;;2.40;99.90;;;;;;20583183;28;20409;-75
2022/01/12 10:53:46;;;;;;;19.85;10.75;;;2.20;99.90;;;;;;20582650;28;20031;-76
2022/01/12 11:03:47;;;;;;;21.92;11.65;;;2.80;99.90;;;;;;20582015;28;20035;-76
2022/01/12 11:13:50;;;;;;;20.90;10.32;;;2.80;99.90;;;;;;20564035;28;20026;-75
2022/01/12 11:23:57;;;;;;;20.20;11.73;;;2.40;99.90;;;;;;20581158;28;20035;-76
2022/01/12 11:33:58;;;;;;;20.00;11.40;;;3.10;99.90;;;;;;20580915;28;20035;-76
2022/01/12 11:44:06;;;;;;;18.08;10.70;;;2.80;99.90;;;;;;20580395;28;20434;-76
2022/01/12 11:54:09;;;;;;;22.30;10.23;;;1.90;99.90;;;;;;20595300;28;20097;-77
2022/01/12 12:04:28;;;;;;;20.20;10.85;;;2.60;99.90;;;;;;20595524;28;20406;-77
2022/01/12 12:14:28;;;;;;;23.15;11.90;;;2.90;99.90;;;;;;20577816;28;20034;-77
2022/01/12 12:24:29;;;;;;;19.17;9.98;;;2.60;99.90;;;;;;20599298;28;20075;-77
2022/01/12 12:34:32;;;;;;;20.50;10.38;;;4.80;99.90;;;;;;20595202;28;20026;-77
2022/01/12 12:44:33;;;;;;;21.73;11.88;;;5.60;99.90;;;;;;20598475;28;20437;-76
2022/01/12 12:54:38;;;;;;;16.17;9.53;;;5.80;99.90;;;;;;20594472;28;20035;-77
2022/01/12 13:04:40;;;;;;;26.95;13.55;;;6.40;99.90;;;;;;20590522;28;20876;-77
2022/01/12 13:14:45;;;;;;;;;;;6.60;99.90;;;;;;20590374;28;20435;-77
2022/01/12 13:24:46;;;;;;;17.45;9.80;;;6.70;99.90;;;;;;20589109;28;19921;-77
2022/01/12 13:34:57;;;;;;;16.77;10.30;;;6.00;99.90;;;;;;20588264;28;20489;-77
2022/01/12 13:45:04;;;;;;;;;;;5.90;99.90;;;;;;20587692;28;20510;-77
2022/01/12 13:55:13;;;;;;;38.33;15.70;;;6.50;99.90;;;;;;20586527;28;20381;-76
2022/01/12 14:05:20;;;;;;;17.33;9.80;;;6.20;99.90;;;;;;20584979;28;20532;-77
2022/01/12 14:15:27;;;;;;;16.13;9.82;;;5.20;99.90;;;;;;20570176;28;20130;-76
2022/01/12 14:25:45;;;;;;;16.30;9.30;;;5.30;99.90;;;;;;20566267;28;20042;-76
2022/01/12 14:35:46;;;;;;;17.30;10.23;;;6.10;99.90;;;;;;20564414;28;20510;-76
2022/01/12 14:45:47;;;;;;;21.17;11.30;;;5.60;99.90;;;;;;20563277;28;20146;-76
2022/01/12 14:55:55;;;;;;;17.30;8.77;;;6.30;99.90;;;;;;20564136;28;20280;-75
2022/01/12 15:06:02;;;;;;;36.38;16.67;;;5.90;99.90;;;;;;20562925;28;20483;-76
2022/01/12 15:16:04;;;;;;;52.88;25.83;;;5.70;99.90;;;;;;20563469;28;20043;-75
2022/01/12 15:26:05;;;;;;;18.98;11.35;;;6.00;99.90;;;;;;20573903;28;20489;-76
2022/01/12 15:36:06;;;;;;;17.40;10.27;;;5.00;99.90;;;;;;20560114;28;20042;-76
2022/01/12 15:46:07;;;;;;;46.15;19.98;;;4.30;99.90;;;;;;20575030;28;20031;-75
2022/01/12 15:56:08;;;;;;;20.63;10.87;;;3.80;99.90;;;;;;20576946;28;20045;-76
2022/01/12 16:06:10;;;;;;;21.17;10.95;;;3.00;99.90;;;;;;20576872;28;20899;-76
2022/01/12 16:16:11;;;;;;;21.20;10.32;;;2.60;99.90;;;;;;20590651;28;20035;-74
2022/01/12 16:26:12;;;;;;;18.67;10.27;;;1.60;99.90;;;;;;20574550;28;20120;-75
2022/01/12 16:36:13;;;;;;;24.23;11.07;;;0.80;99.90;;;;;;20573514;28;20034;-76
2022/01/12 16:46:18;;;;;;;22.35;10.93;;;0.30;99.90;;;;;;20573675;28;20039;-75
2022/01/12 16:56:18;;;;;;;24.55;11.20;;;0.30;99.90;;;;;;20572536;28;20616;-75
2022/01/12 17:06:20;;;;;;;23.58;9.70;;;0.10;99.90;;;;;;20572173;28;20130;-75
2022/01/12 17:16:47;;;;;;;28.70;10.55;;;-0.10;99.90;;;;;;20571069;28;20061;-76
2022/01/12 17:27:03;;;;;;;21.85;11.45;;;-0.20;99.90;;;;;;20569010;28;20037;-76
2022/01/12 17:37:09;;;;;;;26.95;10.45;;;-0.30;99.90;;;;;;20577042;28;20035;-75
2022/01/12 17:47:14;;;;;;;26.45;11.18;;;-0.50;99.90;;;;;;20585725;28;20057;-76
2022/01/12 17:57:14;;;;;;;27.08;10.80;;;-0.50;99.90;;;;;;20583345;28;20039;-74
2022/01/12 18:07:15;;;;;;;24.27;11.68;;;-0.60;99.90;;;;;;20584105;28;20034;-75
2022/01/12 18:17:18;;;;;;;25.55;11.32;;;-0.70;99.90;;;;;;20584206;28;20119;-77
2022/01/12 18:27:19;;;;;;;23.60;10.75;;;-0.80;99.90;;;;;;20582311;28;20038;-76
2022/01/12 18:37:21;;;;;;;24.48;10.57;;;-0.90;99.90;;;;;;20582343;28;20050;-75
2022/01/12 18:47:23;;;;;;;26.70;12.20;;;-1.00;99.90;;;;;;20581999;28;20030;-75
2022/01/12 18:57:24;;;;;;;26.67;12.38;;;-1.00;99.90;;;;;;20581135;28;20494;-74
2022/01/12 19:07:24;;;;;;;30.52;13.13;;;-1.10;99.90;;;;;;20579669;28;20034;-75
2022/01/12 19:17:26;;;;;;;31.85;11.13;;;-1.10;99.90;;;;;;20579518;28;20057;-75
2022/01/12 19:27:27;;;;;;;22.33;10.00;;;-1.10;99.90;;;;;;20562367;28;20061;-76
2022/01/12 19:37:28;;;;;;;22.30;7.90;;;-1.20;99.90;;;;;;20580016;28;20565;-76
2022/01/12 19:47:29;;;;;;;23.10;9.73;;;-1.50;99.90;;;;;;20579389;28;20027;-76
2022/01/12 19:57:45;;;;;;;18.38;8.50;;;-1.40;99.90;;;;;;20578985;28;20066;-76
2022/01/12 20:07:48;;;;;;;16.90;7.75;;;-1.60;99.90;;;;;;20582167;28;20038;-76
2022/01/12 20:21:40;;;;;;;18.35;7.55;;;-1.70;99.90;;;;;;20592863;28;20109;-76
2022/01/12 20:28:15;;;;;;;16.67;7.88;;;-1.90;99.90;;;;;;20574349;28;20433;-75
2022/01/12 20:38:17;;;;;;;15.57;7.50;;;-2.00;99.90;;;;;;20580133;28;20102;-75
2022/01/12 20:48:18;;;;;;;11.23;6.40;;;-2.10;99.90;;;;;;20570085;28;20530;-75
2022/01/12 20:58:18;;;;;;;13.60;6.32;;;-2.20;99.90;;;;;;20569543;28;20073;-74
2022/01/12 21:08:19;;;;;;;12.52;6.43;;;-2.10;99.90;;;;;;20569134;28;20053;-75
2022/01/12 21:18:20;;;;;;;14.20;5.88;;;-2.10;99.90;;;;;;20567133;28;20509;-75
2022/01/12 21:28:21;;;;;;;11.65;5.20;;;-2.20;99.90;;;;;;20567905;28;20045;-72
2022/01/12 21:38:31;;;;;;;11.18;5.13;;;-2.20;99.90;;;;;;20566653;28;20041;-75
2022/01/12 21:48:32;;;;;;;10.60;4.10;;;-2.20;99.90;;;;;;20565760;28;20117;-74
2022/01/12 21:58:33;;;;;;;8.40;4.18;;;-2.40;99.90;;;;;;20564377;28;20569;-75
2022/01/12 22:08:35;;;;;;;7.22;3.53;;;-2.50;99.90;;;;;;20564915;28;20122;-74
2022/01/12 22:18:37;;;;;;;15.55;5.80;;;-2.50;99.90;;;;;;20565690;28;20054;-75
2022/01/12 22:28:38;;;;;;;16.33;4.95;;;-2.60;99.90;;;;;;20563982;28;20505;-75
2022/01/12 22:38:39;;;;;;;10.65;4.55;;;-2.70;99.90;;;;;;20564275;28;20042;-74
2022/01/12 22:48:40;;;;;;;8.63;4.35;;;-2.70;99.90;;;;;;20562010;28;20429;-74
2022/01/12 22:58:47;;;;;;;10.90;4.70;;;-2.90;99.90;;;;;;20576842;28;20106;-75
2022/01/12 23:08:48;;;;;;;8.32;4.45;;;-2.90;99.90;;;;;;20580571;28;20031;-73
2022/01/12 23:18:49;;;;;;;8.02;3.85;;;-3.00;99.90;;;;;;20581366;28;20038;-76
2022/01/12 23:28:50;;;;;;;9.18;4.00;;;-3.10;99.90;;;;;;20579983;28;20039;-73
2022/01/12 23:59:30;;;;;;;5.27;3.27;;;-3.40;99.90;;;;;;20595887;28;20481;-74
